createdAt,value
2022-07-29T00:00:41.147Z,75.56
2022-07-29T00:01:41.148Z,75.76
2022-07-29T00:02:41.173Z,76.00
2022-07-29T00:03:41.149Z,76.10
2022-07-29T00:04:41.235Z,76.78
2022-07-29T00:05:41.123Z,75.90
2022-07-29T00:06:41.121Z,76.71
2022-07-29T00:07:41.121Z,77.12
2022-07-29T00:08:41.108Z,77.01
2022-07-29T00:09:41.940Z,76.81
2022-07-29T00:10:41.102Z,76.40
2022-07-29T00:11:41.096Z,76.40
2022-07-29T00:12:41.087Z,76.61
2022-07-29T00:13:41.094Z,77.12
2022-07-29T00:14:41.082Z,77.52
2022-07-29T00:15:41.075Z,77.45
2022-07-29T00:16:41.150Z,77.97
2022-07-29T00:17:41.067Z,78.06
2022-07-29T00:18:41.063Z,77.97
2022-07-29T00:19:44.945Z,78.17
2022-07-29T00:20:41.051Z,78.06
2022-07-29T00:21:41.047Z,77.66
2022-07-29T00:22:41.045Z,77.86
2022-07-29T00:23:41.037Z,78.37
2022-07-29T00:24:41.033Z,78.67
2022-07-29T00:25:41.029Z,78.57
2022-07-29T00:26:41.029Z,78.47
2022-07-29T00:27:41.018Z,78.37
2022-07-29T00:28:41.009Z,78.67
2022-07-29T00:29:41.013Z,78.37
2022-07-29T00:30:41.004Z,78.37
2022-07-29T00:31:41.015Z,78.17
2022-07-29T00:32:40.995Z,78.47
2022-07-29T00:33:40.991Z,78.51
2022-07-29T00:34:40.983Z,77.80
2022-07-29T00:35:40.979Z,78.10
2022-07-29T00:36:40.975Z,79.32
2022-07-29T00:37:40.970Z,79.22
2022-07-29T00:38:40.962Z,79.63
2022-07-29T00:39:40.960Z,80.03
2022-07-29T00:40:43.910Z,79.72
2022-07-29T00:41:40.952Z,79.42
2022-07-29T00:42:40.944Z,79.93
2022-07-29T00:43:40.943Z,80.13
2022-07-29T00:44:40.938Z,80.07
2022-07-29T00:45:40.933Z,79.36
2022-07-29T00:46:40.991Z,79.97
2022-07-29T00:47:40.920Z,80.07
2022-07-29T00:48:40.966Z,79.86
2022-07-29T00:49:40.910Z,79.86
2022-07-29T00:50:40.913Z,79.86
2022-07-29T00:51:40.906Z,79.97
2022-07-29T00:52:40.899Z,79.25
2022-07-29T00:53:40.891Z,79.16
2022-07-29T00:54:44.803Z,79.77
2022-07-29T00:55:40.882Z,79.63
2022-07-29T00:56:40.877Z,79.97
2022-07-29T00:57:40.872Z,80.07
2022-07-29T00:58:40.865Z,79.66
2022-07-29T00:59:40.860Z,79.97
2022-07-29T01:00:40.891Z,79.86
2022-07-29T01:01:40.894Z,79.86
2022-07-29T01:02:40.850Z,80.17
2022-07-29T01:03:40.841Z,80.27
2022-07-29T01:04:40.837Z,80.47
2022-07-29T01:05:49.980Z,80.27
2022-07-29T01:06:40.827Z,80.31
2022-07-29T01:07:40.820Z,80.88
2022-07-29T01:08:40.817Z,80.82
2022-07-29T01:09:45.816Z,80.78
2022-07-29T01:10:40.810Z,81.02
2022-07-29T01:11:40.809Z,80.72
2022-07-29T01:12:40.798Z,80.72
2022-07-29T01:13:40.797Z,80.92
2022-07-29T01:14:40.788Z,81.12
2022-07-29T01:15:40.789Z,80.92
2022-07-29T01:16:40.834Z,81.02
2022-07-29T01:17:40.775Z,81.12
2022-07-29T01:18:40.767Z,81.93
2022-07-29T01:19:40.761Z,81.43
2022-07-29T01:20:40.757Z,81.43
2022-07-29T01:21:40.752Z,81.63
2022-07-29T01:22:40.748Z,81.93
2022-07-29T01:23:40.742Z,82.04
2022-07-29T01:24:40.739Z,81.73
2022-07-29T01:25:40.744Z,81.53
2022-07-29T01:28:23.443Z,81.84
2022-07-29T01:29:23.423Z,81.73
2022-07-29T01:31:27.434Z,81.63
2022-07-29T01:32:28.863Z,81.63
2022-07-29T01:33:27.380Z,81.93
2022-07-29T01:34:27.379Z,81.43
2022-07-29T01:35:27.371Z,81.73
2022-07-29T01:36:27.365Z,81.84
2022-07-29T01:37:27.362Z,82.04
2022-07-29T01:38:27.352Z,81.63
2022-07-29T01:39:27.349Z,82.45
2022-07-29T01:40:27.344Z,82.54
2022-07-29T01:41:27.341Z,82.59
2022-07-29T01:42:27.334Z,82.99
2022-07-29T01:43:27.332Z,82.68
2022-07-29T01:44:27.322Z,83.09
2022-07-29T01:45:27.319Z,83.09
2022-07-29T01:46:27.347Z,83.29
2022-07-29T01:47:27.309Z,83.40
2022-07-29T01:48:27.309Z,82.89
2022-07-29T01:49:27.333Z,83.70
2022-07-29T01:50:27.294Z,83.91
2022-07-29T01:51:27.287Z,83.70
2022-07-29T01:52:27.284Z,83.70
2022-07-29T01:53:27.308Z,83.70
2022-07-29T01:54:27.272Z,84.21
2022-07-29T01:55:27.269Z,83.60
2022-07-29T01:56:27.261Z,84.01
2022-07-29T01:57:27.257Z,83.70
2022-07-29T01:58:27.249Z,83.50
2022-07-29T01:59:27.250Z,83.56
2022-07-29T02:00:27.262Z,82.89
2022-07-29T02:01:27.308Z,82.95
2022-07-29T02:02:27.235Z,83.40
2022-07-29T02:03:27.224Z,82.89
2022-07-29T02:04:29.715Z,83.40
2022-07-29T02:05:27.265Z,83.40
2022-07-29T02:06:27.214Z,82.89
2022-07-29T02:07:27.208Z,83.60
2022-07-29T02:08:27.207Z,83.36
2022-07-29T02:09:27.202Z,83.60
2022-07-29T02:10:27.193Z,82.18
2022-07-29T02:11:27.191Z,83.81
2022-07-29T02:12:27.176Z,83.91
2022-07-29T02:13:27.174Z,82.89
2022-07-29T02:14:27.164Z,82.24
2022-07-29T02:15:27.164Z,83.60
2022-07-29T02:16:27.257Z,83.70
2022-07-29T02:17:27.149Z,84.01
2022-07-29T02:18:27.152Z,83.70
2022-07-29T02:19:27.138Z,83.81
2022-07-29T02:20:27.134Z,83.81
2022-07-29T02:21:27.128Z,83.60
2022-07-29T02:22:27.121Z,83.70
2022-07-29T02:23:27.135Z,83.81
2022-07-29T02:24:27.114Z,83.81
2022-07-29T02:25:36.998Z,82.38
2022-07-29T02:26:27.102Z,82.79
2022-07-29T02:27:27.097Z,83.91
2022-07-29T02:28:27.090Z,83.91
2022-07-29T02:29:27.086Z,84.01
2022-07-29T02:30:27.079Z,84.01
2022-07-29T02:31:27.192Z,84.31
2022-07-29T02:32:27.070Z,84.21
2022-07-29T02:33:27.088Z,84.11
2022-07-29T02:34:27.059Z,84.52
2022-07-29T02:35:27.057Z,84.01
2022-07-29T02:36:27.049Z,83.91
2022-07-29T02:37:27.042Z,84.25
2022-07-29T02:38:27.037Z,84.25
2022-07-29T02:39:27.058Z,84.66
2022-07-29T02:40:27.024Z,84.45
2022-07-29T02:41:27.026Z,84.25
2022-07-29T02:42:27.015Z,84.97
2022-07-29T02:43:27.011Z,84.25
2022-07-29T02:44:30.073Z,85.06
2022-07-29T02:45:27.000Z,84.86
2022-07-29T02:46:28.484Z,84.86
2022-07-29T02:47:26.987Z,85.06
2022-07-29T02:48:26.982Z,85.06
2022-07-29T02:49:27.020Z,84.25
2022-07-29T02:50:26.972Z,84.97
2022-07-29T02:51:41.509Z,84.35
2022-07-29T02:52:26.959Z,84.25
2022-07-29T02:53:26.955Z,84.97
2022-07-29T02:54:26.950Z,84.35
2022-07-29T02:55:26.945Z,84.35
2022-07-29T02:56:26.941Z,84.45
2022-07-29T02:57:26.944Z,84.21
2022-07-29T02:58:26.930Z,84.45
2022-07-29T02:59:26.975Z,84.45
2022-07-29T03:00:26.914Z,84.86
2022-07-29T03:01:26.955Z,84.86
2022-07-29T03:02:26.905Z,84.86
2022-07-29T03:03:26.900Z,84.97
2022-07-29T03:04:26.962Z,84.45
2022-07-29T03:05:26.888Z,84.45
2022-07-29T03:06:28.515Z,84.31
2022-07-29T03:07:26.877Z,84.42
2022-07-29T03:08:26.871Z,84.52
2022-07-29T03:09:26.868Z,84.52
2022-07-29T03:10:26.860Z,84.42
2022-07-29T03:11:39.021Z,84.21
2022-07-29T03:12:26.849Z,84.31
2022-07-29T03:13:26.846Z,84.01
2022-07-29T03:14:26.839Z,84.01
2022-07-29T03:15:26.836Z,83.91
2022-07-29T03:16:26.858Z,84.01
2022-07-29T03:17:26.828Z,83.91
2022-07-29T03:18:26.821Z,83.91
2022-07-29T03:19:26.812Z,83.81
2022-07-29T03:20:26.806Z,83.67
2022-07-29T03:21:26.799Z,83.36
2022-07-29T03:22:26.794Z,83.40
2022-07-29T03:23:26.789Z,82.68
2022-07-29T03:24:26.785Z,82.95
2022-07-29T03:25:26.776Z,83.76
2022-07-29T03:26:26.771Z,83.46
2022-07-29T03:27:26.766Z,83.70
2022-07-29T03:28:27.005Z,83.60
2022-07-29T03:29:33.910Z,83.70
2022-07-29T03:30:26.753Z,83.36
2022-07-29T03:31:26.819Z,82.54
2022-07-29T03:32:26.760Z,83.15
2022-07-29T03:33:26.735Z,82.85
2022-07-29T03:34:26.725Z,83.46
2022-07-29T03:35:26.722Z,83.06
2022-07-29T03:36:26.717Z,83.06
2022-07-29T03:37:26.709Z,83.15
2022-07-29T03:38:26.708Z,83.06
2022-07-29T03:39:26.697Z,83.26
2022-07-29T03:40:26.694Z,83.15
2022-07-29T03:41:26.691Z,83.26
2022-07-29T03:42:29.899Z,83.56
2022-07-29T03:43:26.676Z,83.36
2022-07-29T03:44:26.672Z,83.46
2022-07-29T03:45:26.667Z,83.36
2022-07-29T03:46:26.701Z,83.15
2022-07-29T03:47:27.020Z,83.09
2022-07-29T03:48:26.648Z,83.06
2022-07-29T03:49:26.675Z,83.60
2022-07-29T03:50:26.634Z,82.75
2022-07-29T03:51:33.816Z,83.46
2022-07-29T03:52:26.623Z,83.29
2022-07-29T03:53:26.618Z,83.46
2022-07-29T03:54:26.615Z,83.76
2022-07-29T03:55:26.610Z,82.79
2022-07-29T03:56:26.603Z,83.50
2022-07-29T03:57:26.616Z,83.60
2022-07-29T03:58:26.589Z,83.46
2022-07-29T03:59:26.583Z,83.40
2022-07-29T04:00:26.593Z,83.06
2022-07-29T04:01:26.685Z,83.46
2022-07-29T04:02:30.528Z,83.36
2022-07-29T04:03:26.634Z,83.56
2022-07-29T04:04:26.557Z,83.15
2022-07-29T04:05:26.550Z,83.46
2022-07-29T04:06:26.544Z,82.85
2022-07-29T04:07:26.540Z,83.06
2022-07-29T04:08:26.533Z,83.15
2022-07-29T04:09:26.528Z,83.15
2022-07-29T04:10:32.031Z,83.06
2022-07-29T04:11:26.513Z,83.06
2022-07-29T04:12:26.507Z,82.95
2022-07-29T04:13:26.505Z,82.14
2022-07-29T04:14:26.501Z,82.14
2022-07-29T04:15:26.493Z,82.45
2022-07-29T04:16:26.522Z,81.70
2022-07-29T04:17:26.484Z,82.04
2022-07-29T04:18:26.480Z,82.14
2022-07-29T04:19:26.471Z,81.84
2022-07-29T04:20:26.465Z,81.79
2022-07-29T04:21:26.459Z,82.34
2022-07-29T04:22:26.452Z,82.04
2022-07-29T04:23:26.452Z,81.39
2022-07-29T04:24:26.447Z,81.90
2022-07-29T04:25:26.438Z,82.00
2022-07-29T04:26:26.431Z,81.39
2022-07-29T04:27:26.429Z,81.79
2022-07-29T04:28:26.426Z,80.88
2022-07-29T04:29:26.417Z,80.84
2022-07-29T04:30:26.409Z,80.54
2022-07-29T04:31:26.451Z,80.24
2022-07-29T04:32:26.398Z,79.83
2022-07-29T04:33:26.396Z,79.72
2022-07-29T04:34:28.070Z,79.79
2022-07-29T04:35:26.382Z,79.99
2022-07-29T04:36:29.347Z,79.59
2022-07-29T04:37:26.370Z,79.79
2022-07-29T04:38:26.368Z,79.79
2022-07-29T04:39:27.226Z,79.99
2022-07-29T04:40:26.359Z,79.83
2022-07-29T04:41:33.175Z,80.03
2022-07-29T04:42:27.503Z,79.93
2022-07-29T04:43:26.346Z,79.83
2022-07-29T04:44:28.457Z,80.03
2022-07-29T04:45:26.327Z,79.99
2022-07-29T04:46:26.378Z,80.03
2022-07-29T04:47:26.319Z,79.93
2022-07-29T04:48:28.658Z,79.79
2022-07-29T04:49:26.347Z,79.99
2022-07-29T04:50:26.302Z,79.69
2022-07-29T04:51:26.295Z,79.90
2022-07-29T04:52:26.293Z,79.59
2022-07-29T04:53:26.283Z,79.28
2022-07-29T04:54:26.281Z,79.55
2022-07-29T04:55:26.273Z,79.49
2022-07-29T04:56:26.266Z,79.38
2022-07-29T04:57:26.263Z,79.99
2022-07-29T04:58:26.256Z,79.90
2022-07-29T04:59:26.255Z,79.28
2022-07-29T05:00:33.054Z,79.25
2022-07-29T05:01:26.333Z,79.55
2022-07-29T05:02:26.301Z,79.45
2022-07-29T05:03:26.233Z,79.25
2022-07-29T05:04:26.227Z,78.74
2022-07-29T05:05:26.223Z,79.04
2022-07-29T05:06:26.215Z,78.40
2022-07-29T05:07:26.213Z,78.30
2022-07-29T05:08:26.208Z,78.70
2022-07-29T05:09:26.201Z,78.40
2022-07-29T05:10:26.195Z,77.79
2022-07-29T05:11:30.215Z,78.06
2022-07-29T05:12:26.190Z,76.67
2022-07-29T05:13:26.192Z,74.67
2022-07-29T05:14:26.188Z,72.08
2022-07-29T05:15:26.218Z,70.93
2022-07-29T05:16:26.215Z,70.19
2022-07-29T05:17:26.164Z,68.44
2022-07-29T05:18:26.369Z,66.86
2022-07-29T05:19:26.153Z,65.52
2022-07-29T05:20:26.146Z,64.61
2022-07-29T05:21:26.140Z,65.32
2022-07-29T05:22:26.179Z,66.62
2022-07-29T05:23:26.136Z,69.11
2022-07-29T05:24:26.129Z,69.85
2022-07-29T05:25:44.314Z,70.36
2022-07-29T05:26:26.118Z,71.17
2022-07-29T05:27:26.116Z,70.79
2022-07-29T05:28:26.111Z,71.70
2022-07-29T05:29:44.566Z,71.53
2022-07-29T05:30:26.101Z,72.65
2022-07-29T05:31:26.147Z,72.85
2022-07-29T05:32:26.095Z,72.24
2022-07-29T05:33:34.711Z,72.24
2022-07-29T05:34:26.130Z,72.65
2022-07-29T05:35:26.084Z,73.19
2022-07-29T05:36:26.080Z,73.69
2022-07-29T05:37:26.074Z,73.49
2022-07-29T05:38:26.068Z,73.49
2022-07-29T05:39:47.261Z,72.99
2022-07-29T05:40:26.063Z,73.59
2022-07-29T05:41:26.057Z,73.80
2022-07-29T05:42:26.053Z,73.59
2022-07-29T05:43:26.049Z,73.69
2022-07-29T05:44:26.045Z,73.49
2022-07-29T05:45:26.039Z,73.39
2022-07-29T05:46:26.069Z,73.90
2022-07-29T05:47:26.034Z,73.90
2022-07-29T05:48:26.032Z,73.69
2022-07-29T05:49:27.267Z,74.30
2022-07-29T05:50:26.018Z,74.30
2022-07-29T05:51:26.015Z,74.40
2022-07-29T05:52:26.012Z,73.39
2022-07-29T05:53:26.007Z,74.10
2022-07-29T05:54:25.998Z,74.20
2022-07-29T05:55:25.996Z,74.16
2022-07-29T05:56:25.995Z,73.52
2022-07-29T05:57:25.991Z,73.52
2022-07-29T05:58:25.984Z,73.02
2022-07-29T05:59:30.074Z,72.61
2022-07-29T06:00:25.976Z,73.05
2022-07-29T06:01:26.090Z,73.46
2022-07-29T06:02:25.972Z,73.02
2022-07-29T06:03:25.965Z,73.02
2022-07-29T06:04:25.988Z,72.61
2022-07-29T06:05:25.959Z,72.55
2022-07-29T06:06:25.951Z,73.02
2022-07-29T06:07:25.945Z,72.78
2022-07-29T06:08:25.941Z,71.47
2022-07-29T06:09:25.940Z,70.83
2022-07-29T06:10:27.095Z,69.71
2022-07-29T06:11:25.930Z,69.89
2022-07-29T06:12:25.925Z,70.39
2022-07-29T06:13:25.926Z,70.26
2022-07-29T06:14:25.917Z,68.13
2022-07-29T06:15:25.918Z,68.98
2022-07-29T06:16:30.003Z,69.68
2022-07-29T06:17:25.908Z,69.58
2022-07-29T06:18:25.921Z,69.48
2022-07-29T06:19:25.908Z,69.18
2022-07-29T06:20:27.027Z,69.82
2022-07-29T06:21:25.897Z,69.78
2022-07-29T06:22:25.887Z,68.74
2022-07-29T06:23:25.884Z,69.15
2022-07-29T06:24:25.881Z,68.24
2022-07-29T06:25:25.878Z,68.44
2022-07-29T06:26:30.437Z,68.30
2022-07-29T06:27:25.913Z,67.70
2022-07-29T06:28:25.872Z,68.54
2022-07-29T06:29:25.866Z,67.93
2022-07-29T06:30:25.936Z,68.64
2022-07-29T06:31:25.927Z,68.61
2022-07-29T06:32:27.336Z,67.57
2022-07-29T06:33:25.856Z,67.27
2022-07-29T06:34:25.855Z,67.07
2022-07-29T06:35:41.290Z,66.69
2022-07-29T06:36:25.843Z,68.41
2022-07-29T06:37:25.841Z,68.30
2022-07-29T06:38:30.950Z,68.41
2022-07-29T06:39:25.835Z,68.27
2022-07-29T06:40:25.854Z,67.70
2022-07-29T06:41:25.823Z,67.60
2022-07-29T06:42:25.846Z,68.01
2022-07-29T06:43:26.350Z,67.50
2022-07-29T06:44:25.813Z,67.80
2022-07-29T06:45:25.818Z,68.30
2022-07-29T06:46:25.849Z,66.66
2022-07-29T06:47:25.807Z,67.57
2022-07-29T06:48:25.807Z,66.96
2022-07-29T06:49:25.821Z,66.42
2022-07-29T06:50:25.839Z,66.42
2022-07-29T06:51:25.789Z,66.22
2022-07-29T06:52:25.790Z,66.22
2022-07-29T06:53:25.791Z,65.79
2022-07-29T06:54:25.784Z,64.98
2022-07-29T06:55:25.787Z,65.59
2022-07-29T06:56:25.778Z,65.39
2022-07-29T06:57:25.776Z,65.29
2022-07-29T06:58:25.773Z,64.58
2022-07-29T06:59:33.451Z,64.78
2022-07-29T07:00:25.845Z,64.25
2022-07-29T07:01:25.844Z,64.42
2022-07-29T07:02:25.807Z,63.85
2022-07-29T07:03:25.762Z,63.92
2022-07-29T07:04:25.756Z,64.59
2022-07-29T07:05:25.753Z,62.48
2022-07-29T07:06:25.752Z,62.55
2022-07-29T07:07:25.749Z,61.85
2022-07-29T07:08:25.747Z,61.51
2022-07-29T07:09:25.749Z,60.91
2022-07-29T07:10:25.782Z,61.54
2022-07-29T07:11:25.741Z,62.95
2022-07-29T07:12:25.733Z,62.05
2022-07-29T07:13:25.732Z,61.54
2022-07-29T07:14:25.728Z,61.41
2022-07-29T07:15:39.618Z,61.21
2022-07-29T07:16:25.771Z,61.88
2022-07-29T07:17:25.723Z,60.25
2022-07-29T07:18:25.719Z,59.42
2022-07-29T07:19:25.723Z,58.89
2022-07-29T07:20:25.716Z,57.93
2022-07-29T07:21:25.716Z,56.73
2022-07-29T07:22:25.722Z,56.23
2022-07-29T07:23:25.716Z,57.30
2022-07-29T07:24:25.728Z,56.17
2022-07-29T07:25:25.706Z,54.87
2022-07-29T07:26:25.706Z,54.30
2022-07-29T07:27:25.706Z,54.47
2022-07-29T07:28:25.705Z,55.15
2022-07-29T07:29:25.704Z,54.87
2022-07-29T07:30:25.706Z,54.97
2022-07-29T07:31:25.785Z,54.85
2022-07-29T07:33:25.702Z,53.85
2022-07-29T07:34:28.394Z,54.27
2022-07-29T07:35:25.705Z,54.87
2022-07-29T07:36:25.699Z,53.67
2022-07-29T07:37:25.697Z,53.55
2022-07-29T07:38:25.707Z,53.64
2022-07-29T07:39:25.701Z,54.32
2022-07-29T07:40:25.703Z,52.89
2022-07-29T07:41:25.702Z,51.84
2022-07-29T07:42:25.710Z,52.07
2022-07-29T07:43:25.700Z,51.32
2022-07-29T07:44:25.703Z,50.32
2022-07-29T07:45:25.753Z,49.90
2022-07-29T07:46:25.751Z,50.30
2022-07-29T07:47:25.702Z,49.83
2022-07-29T07:48:25.703Z,49.45
2022-07-29T07:49:25.734Z,49.18
2022-07-29T07:50:25.707Z,49.13
2022-07-29T07:51:25.703Z,48.03
2022-07-29T07:52:25.707Z,47.53
2022-07-29T07:53:25.715Z,49.43
2022-07-29T07:54:25.711Z,49.15
2022-07-29T07:55:25.710Z,49.15
2022-07-29T07:56:25.714Z,47.69
2022-07-29T07:57:25.715Z,47.27
2022-07-29T07:58:25.717Z,45.57
2022-07-29T07:59:25.717Z,45.48
2022-07-29T08:00:25.722Z,46.81
2022-07-29T08:01:25.901Z,45.90
2022-07-29T08:02:25.772Z,45.57
2022-07-29T08:03:25.723Z,43.84
2022-07-29T08:04:28.737Z,44.32
2022-07-29T08:05:25.730Z,44.42
2022-07-29T08:06:25.735Z,43.92
2022-07-29T08:07:25.733Z,44.44
2022-07-29T08:08:25.739Z,45.48
2022-07-29T08:09:30.064Z,45.48
2022-07-29T08:10:25.746Z,44.58
2022-07-29T08:11:25.744Z,45.45
2022-07-29T08:12:25.748Z,43.90
2022-07-29T08:13:25.749Z,44.00
2022-07-29T08:14:25.752Z,42.91
2022-07-29T08:15:25.758Z,42.13
2022-07-29T08:16:25.845Z,43.44
2022-07-29T08:22:25.775Z,41.17
2022-07-29T08:23:25.776Z,40.28
2022-07-29T08:24:25.776Z,40.11
2022-07-29T08:25:25.778Z,40.74
2022-07-29T08:26:25.778Z,40.03
2022-07-29T08:27:43.726Z,39.73
2022-07-29T08:28:26.176Z,40.11
2022-07-29T08:29:25.786Z,39.02
2022-07-29T08:30:25.788Z,39.59
2022-07-29T08:31:25.882Z,38.23
2022-07-29T08:32:50.873Z,39.09
2022-07-29T08:33:25.793Z,40.42
2022-07-29T08:34:27.756Z,39.75
2022-07-29T08:35:25.795Z,42.13
2022-07-29T08:36:25.796Z,40.36
2022-07-29T08:37:25.798Z,40.46
2022-07-29T08:38:25.798Z,41.24
2022-07-29T08:39:25.801Z,40.64
2022-07-29T08:40:30.490Z,40.74
2022-07-29T08:41:25.801Z,38.47
2022-07-29T08:42:25.825Z,40.28
2022-07-29T08:43:25.804Z,41.00
2022-07-29T08:44:30.448Z,40.60
2022-07-29T08:45:25.894Z,40.92
2022-07-29T08:46:25.809Z,41.52
2022-07-29T08:47:25.806Z,41.00
2022-07-29T08:48:25.871Z,40.52
2022-07-29T08:49:25.874Z,40.32
2022-07-29T08:50:25.809Z,40.80
2022-07-29T08:51:25.811Z,42.27
2022-07-29T08:52:25.813Z,40.96
2022-07-29T08:53:25.812Z,40.06
2022-07-29T08:54:25.812Z,41.24
2022-07-29T08:55:25.815Z,40.62
2022-07-29T08:56:25.817Z,37.86
2022-07-29T08:57:25.821Z,38.75
2022-07-29T08:58:26.005Z,38.45
2022-07-29T08:59:25.820Z,38.14
2022-07-29T09:00:25.822Z,38.30
2022-07-29T09:01:36.353Z,37.88
2022-07-29T09:02:25.825Z,37.85
2022-07-29T09:03:25.866Z,37.55
2022-07-29T09:04:25.828Z,36.16
2022-07-29T09:05:25.834Z,36.76
2022-07-29T09:06:25.831Z,35.06
2022-07-29T09:07:25.833Z,35.47
2022-07-29T09:08:25.836Z,35.09
2022-07-29T09:09:25.833Z,35.72
2022-07-29T09:10:25.837Z,37.84
2022-07-29T09:11:25.839Z,37.74
2022-07-29T09:12:29.077Z,36.94
2022-07-29T09:13:25.842Z,38.12
2022-07-29T09:14:25.844Z,37.84
2022-07-29T09:15:25.844Z,38.64
2022-07-29T09:16:50.985Z,37.54
2022-07-29T09:17:25.870Z,37.62
2022-07-29T09:18:30.963Z,36.25
2022-07-29T09:19:25.850Z,38.35
2022-07-29T09:20:25.850Z,37.24
2022-07-29T09:21:25.850Z,38.26
2022-07-29T09:22:25.853Z,38.45
2022-07-29T09:23:25.855Z,37.84
2022-07-29T09:24:25.855Z,38.12
2022-07-29T09:25:25.853Z,38.02
2022-07-29T09:26:25.856Z,37.32
2022-07-29T09:27:25.856Z,37.90
2022-07-29T09:28:25.867Z,37.70
2022-07-29T09:29:25.857Z,37.11
2022-07-29T09:30:31.536Z,36.10
2022-07-29T09:31:25.969Z,37.29
2022-07-29T09:32:25.864Z,36.79
2022-07-29T09:33:25.861Z,35.32
2022-07-29T09:34:25.861Z,35.26
2022-07-29T09:35:25.865Z,36.55
2022-07-29T09:36:25.868Z,37.24
2022-07-29T09:37:25.864Z,38.34
2022-07-29T09:38:25.873Z,35.66
2022-07-29T09:39:25.895Z,36.33
2022-07-29T09:40:25.869Z,35.04
2022-07-29T09:41:25.872Z,37.11
2022-07-29T09:42:25.869Z,35.22
2022-07-29T09:43:25.869Z,34.92
2022-07-29T09:44:25.871Z,35.42
2022-07-29T09:45:25.870Z,33.24
2022-07-29T09:46:25.904Z,35.03
2022-07-29T09:47:25.875Z,33.06
2022-07-29T09:48:25.878Z,33.55
2022-07-29T09:49:25.924Z,34.03
2022-07-29T09:50:25.874Z,33.45
2022-07-29T09:51:37.841Z,34.45
2022-07-29T09:52:25.876Z,34.25
2022-07-29T09:53:25.878Z,33.15
2022-07-29T09:54:25.879Z,34.05
2022-07-29T09:55:25.881Z,32.84
2022-07-29T09:56:25.883Z,33.94
2022-07-29T09:57:30.342Z,31.75
2022-07-29T09:58:25.894Z,34.23
2022-07-29T09:59:25.889Z,33.44
2022-07-29T10:00:25.884Z,33.14
2022-07-29T10:01:25.912Z,32.54
2022-07-29T10:02:25.889Z,32.75
2022-07-29T10:03:26.041Z,32.94
2022-07-29T10:04:25.892Z,34.03
2022-07-29T10:05:25.892Z,34.03
2022-07-29T10:06:25.894Z,31.45
2022-07-29T10:07:25.898Z,32.33
2022-07-29T10:08:25.896Z,32.93
2022-07-29T10:09:25.900Z,33.70
2022-07-29T10:10:25.902Z,34.38
2022-07-29T10:11:25.904Z,32.79
2022-07-29T10:12:25.900Z,32.09
2022-07-29T10:13:25.905Z,34.56
2022-07-29T10:14:25.905Z,32.89
2022-07-29T10:15:25.914Z,31.81
2022-07-29T10:16:25.932Z,32.70
2022-07-29T10:17:25.912Z,32.51
2022-07-29T10:18:25.908Z,34.59
2022-07-29T10:19:25.912Z,32.24
2022-07-29T10:20:25.910Z,33.64
2022-07-29T10:21:35.365Z,33.62
2022-07-29T10:22:51.409Z,34.30
2022-07-29T10:23:25.918Z,35.19
2022-07-29T10:24:25.920Z,34.30
2022-07-29T10:25:25.919Z,32.70
2022-07-29T10:26:25.919Z,32.91
2022-07-29T10:27:25.921Z,34.20
2022-07-29T10:28:25.924Z,34.48
2022-07-29T10:29:25.924Z,33.11
2022-07-29T10:30:25.922Z,35.22
2022-07-29T10:31:26.023Z,34.73
2022-07-29T10:32:25.928Z,34.22
2022-07-29T10:33:25.929Z,35.50
2022-07-29T10:34:25.929Z,35.32
2022-07-29T10:35:25.928Z,34.34
2022-07-29T10:36:25.934Z,35.04
2022-07-29T10:37:25.928Z,35.55
2022-07-29T10:38:25.935Z,35.55
2022-07-29T10:39:25.935Z,35.14
2022-07-29T11:33:16.948Z,33.11
2022-07-29T11:34:05.616Z,33.39
2022-07-29T11:39:41.948Z,32.70
2022-07-29T11:43:56.575Z,32.60
2022-07-29T11:44:49.209Z,33.87
2022-07-29T11:56:21.102Z,33.65
2022-07-29T11:57:06.022Z,33.44
2022-07-29T11:58:58.923Z,32.93
2022-07-29T12:00:04.774Z,32.43
2022-07-29T12:04:13.957Z,32.22
2022-07-29T12:05:14.523Z,33.51
2022-07-29T12:07:18.202Z,33.41
2022-07-29T12:08:17.940Z,34.00
2022-07-29T12:09:17.939Z,32.52
2022-07-29T12:10:19.766Z,32.04
2022-07-29T12:11:17.940Z,33.94
2022-07-29T12:12:17.942Z,34.84
2022-07-29T12:13:17.942Z,33.77
2022-07-29T12:25:44.286Z,35.12
2022-07-29T12:26:44.279Z,35.91
2022-07-29T12:28:48.279Z,33.73
2022-07-29T12:29:48.911Z,34.53
2022-07-29T12:31:44.011Z,34.64
2022-07-29T12:32:41.395Z,35.65
2022-07-29T12:33:41.397Z,36.72
2022-07-29T12:34:41.408Z,35.42
2022-07-29T12:35:41.400Z,35.50
2022-07-29T12:36:41.405Z,35.80
2022-07-29T12:37:42.597Z,35.88
2022-07-29T12:38:41.413Z,35.57
2022-07-29T12:39:41.410Z,35.66
2022-07-29T12:40:41.405Z,34.67
2022-07-29T12:41:41.407Z,34.88
2022-07-29T12:42:41.412Z,35.07
2022-07-29T12:43:41.414Z,36.25
2022-07-29T12:44:41.417Z,35.66
2022-07-29T12:45:41.419Z,35.66
2022-07-29T12:46:41.597Z,35.35
2022-07-29T12:47:41.421Z,35.15
2022-07-29T12:48:41.516Z,34.18
2022-07-29T12:49:41.436Z,35.37
2022-07-29T12:50:41.429Z,36.06
2022-07-29T12:51:41.431Z,36.18
2022-07-29T12:52:41.431Z,36.88
2022-07-29T12:53:41.433Z,36.98
2022-07-29T12:54:41.437Z,37.48
2022-07-29T12:55:41.444Z,36.79
2022-07-29T12:56:43.263Z,37.62
2022-07-29T12:57:41.442Z,37.32
2022-07-29T12:58:41.444Z,38.49
2022-07-29T12:59:41.452Z,37.60
2022-07-29T13:00:41.464Z,37.00
2022-07-29T13:01:41.449Z,36.71
2022-07-29T13:02:41.518Z,37.40
2022-07-29T13:03:41.451Z,36.51
2022-07-29T13:04:41.455Z,36.80
2022-07-29T13:05:43.619Z,37.70
2022-07-29T13:06:41.461Z,37.70
2022-07-29T13:07:55.389Z,38.07
2022-07-29T13:08:41.467Z,37.18
2022-07-29T13:09:41.466Z,37.26
2022-07-29T13:10:41.467Z,37.16
2022-07-29T13:11:45.278Z,36.55
2022-07-29T13:12:41.470Z,36.08
2022-07-29T13:13:41.474Z,36.69
2022-07-29T13:14:41.476Z,36.29
2022-07-29T13:15:41.475Z,37.08
2022-07-29T13:16:41.530Z,36.88
2022-07-29T13:17:41.480Z,36.69
2022-07-29T13:18:41.481Z,36.87
2022-07-29T13:19:41.509Z,36.87
2022-07-29T13:20:41.486Z,37.05
2022-07-29T13:21:41.485Z,36.36
2022-07-29T13:22:41.490Z,36.46
2022-07-29T13:23:41.496Z,36.06
2022-07-29T13:24:41.495Z,36.47
2022-07-29T13:25:41.496Z,36.08
2022-07-29T13:26:41.498Z,36.67
2022-07-29T13:27:41.499Z,37.07
2022-07-29T13:28:44.159Z,36.57
2022-07-29T13:29:41.504Z,36.65
2022-07-29T13:30:44.542Z,35.38
2022-07-29T13:31:41.509Z,35.70
2022-07-29T13:32:41.512Z,37.89
2022-07-29T13:33:41.513Z,37.40
2022-07-29T13:34:41.518Z,37.49
2022-07-29T13:35:41.521Z,37.77
2022-07-29T13:36:41.800Z,37.77
2022-07-29T13:37:41.524Z,36.79
2022-07-29T13:38:41.523Z,36.27
2022-07-29T13:39:41.527Z,37.56
2022-07-29T13:40:41.531Z,37.16
2022-07-29T13:41:41.528Z,36.37
2022-07-29T13:42:41.533Z,37.07
2022-07-29T13:43:41.532Z,37.52
2022-07-29T13:44:41.538Z,36.34
2022-07-29T13:45:41.564Z,36.54
2022-07-29T13:46:41.543Z,37.15
2022-07-29T13:47:44.787Z,36.55
2022-07-29T13:48:41.584Z,37.74
2022-07-29T13:49:41.550Z,37.16
2022-07-29T13:50:41.553Z,36.59
2022-07-29T13:51:41.551Z,36.80
2022-07-29T13:52:41.558Z,37.79
2022-07-29T13:53:41.550Z,37.98
2022-07-29T13:54:42.573Z,38.27
2022-07-29T13:55:41.560Z,37.48
2022-07-29T13:56:41.562Z,37.07
2022-07-29T13:57:41.565Z,37.36
2022-07-29T13:58:41.566Z,36.85
2022-07-29T13:59:41.567Z,37.16
2022-07-29T14:00:41.579Z,37.08
2022-07-29T14:01:41.603Z,36.98
2022-07-29T14:02:41.575Z,36.18
2022-07-29T14:03:41.574Z,35.88
2022-07-29T14:04:41.632Z,36.97
2022-07-29T14:05:41.582Z,36.47
2022-07-29T14:06:41.585Z,36.27
2022-07-29T14:07:41.591Z,37.16
2022-07-29T14:08:41.590Z,37.66
2022-07-29T14:09:41.890Z,37.24
2022-07-29T14:10:41.592Z,35.68
2022-07-29T14:11:41.597Z,36.75
2022-07-29T14:12:41.596Z,36.57
2022-07-29T14:13:41.598Z,37.76
2022-07-29T14:14:41.602Z,36.87
2022-07-29T14:15:41.603Z,36.25
2022-07-29T14:16:47.611Z,36.25
2022-07-29T14:17:41.611Z,37.03
2022-07-29T14:18:41.612Z,36.24
2022-07-29T14:19:41.612Z,36.63
2022-07-29T14:20:41.616Z,35.63
2022-07-29T14:21:41.639Z,36.42
2022-07-29T14:22:42.684Z,35.63
2022-07-29T14:23:42.361Z,36.60
2022-07-29T14:24:41.626Z,35.52
2022-07-29T14:25:41.624Z,35.81
2022-07-29T14:26:41.630Z,34.92
2022-07-29T14:27:41.637Z,35.61
2022-07-29T14:28:42.108Z,35.20
2022-07-29T14:29:41.636Z,36.70
2022-07-29T14:30:41.641Z,34.31